sensor_id;sensor_type;location;lat;lon;timestamp;P1;durP1;ratioP1;P2;durP2;ratioP2
52184;SDS011;38160;52.876;18.778;2022-07-23T00:01:20;21.73;;;15.55;;
52184;SDS011;38160;52.876;18.778;2022-07-23T00:04:22;22.13;;;15.68;;
52184;SDS011;38160;52.876;18.778;2022-07-23T00:20:31;22.20;;;16.25;;
52184;SDS011;38160;52.876;18.778;2022-07-23T00:23:03;27.75;;;16.20;;
52184;SDS011;38160;52.876;18.778;2022-07-23T00:25:35;23.75;;;16.55;;
52184;SDS011;38160;52.876;18.778;2022-07-23T00:28:07;21.05;;;16.80;;
52184;SDS011;38160;52.876;18.778;2022-07-23T00:31:03;22.93;;;16.10;;
52184;SDS011;38160;52.876;18.778;2022-07-23T00:33:48;20.12;;;15.85;;
52184;SDS011;38160;52.876;18.778;2022-07-23T00:36:27;20.02;;;14.80;;
52184;SDS011;38160;52.876;18.778;2022-07-23T00:42:04;18.37;;;15.90;;
52184;SDS011;38160;52.876;18.778;2022-07-23T00:55:46;18.48;;;14.35;;
52184;SDS011;38160;52.876;18.778;2022-07-23T00:59:08;17.92;;;14.73;;
52184;SDS011;38160;52.876;18.778;2022-07-23T01:05:06;20.45;;;16.05;;
52184;SDS011;38160;52.876;18.778;2022-07-23T01:14:53;20.05;;;15.95;;
52184;SDS011;38160;52.876;18.778;2022-07-23T01:17:30;22.35;;;16.00;;
52184;SDS011;38160;52.876;18.778;2022-07-23T01:20:02;20.62;;;16.12;;
52184;SDS011;38160;52.876;18.778;2022-07-23T01:22:36;20.05;;;16.60;;
52184;SDS011;38160;52.876;18.778;2022-07-23T01:25:07;22.13;;;17.20;;
52184;SDS011;38160;52.876;18.778;2022-07-23T01:27:40;19.90;;;16.12;;
52184;SDS011;38160;52.876;18.778;2022-07-23T01:30:12;20.68;;;16.32;;
52184;SDS011;38160;52.876;18.778;2022-07-23T01:32:44;20.08;;;16.17;;
52184;SDS011;38160;52.876;18.778;2022-07-23T01:35:16;21.45;;;16.25;;
52184;SDS011;38160;52.876;18.778;2022-07-23T01:37:47;20.80;;;15.78;;
52184;SDS011;38160;52.876;18.778;2022-07-23T01:40:19;19.48;;;15.38;;
52184;SDS011;38160;52.876;18.778;2022-07-23T01:42:51;20.05;;;15.98;;
52184;SDS011;38160;52.876;18.778;2022-07-23T01:45:23;19.07;;;15.53;;
52184;SDS011;38160;52.876;18.778;2022-07-23T01:47:56;23.80;;;15.60;;
52184;SDS011;38160;52.876;18.778;2022-07-23T01:50:28;17.85;;;15.23;;
52184;SDS011;38160;52.876;18.778;2022-07-23T01:53:10;22.65;;;15.93;;
52184;SDS011;38160;52.876;18.778;2022-07-23T01:55:42;19.25;;;16.02;;
52184;SDS011;38160;52.876;18.778;2022-07-23T01:58:14;19.45;;;15.88;;
52184;SDS011;38160;52.876;18.778;2022-07-23T02:00:46;22.17;;;16.45;;
52184;SDS011;38160;52.876;18.778;2022-07-23T02:03:17;20.55;;;16.60;;
52184;SDS011;38160;52.876;18.778;2022-07-23T02:05:50;19.25;;;15.88;;
52184;SDS011;38160;52.876;18.778;2022-07-23T02:08:21;20.23;;;16.60;;
52184;SDS011;38160;52.876;18.778;2022-07-23T02:10:53;18.95;;;15.68;;
52184;SDS011;38160;52.876;18.778;2022-07-23T02:13:25;19.23;;;15.55;;
52184;SDS011;38160;52.876;18.778;2022-07-23T02:15:58;22.55;;;17.87;;
52184;SDS011;38160;52.876;18.778;2022-07-23T02:18:30;21.25;;;16.80;;
52184;SDS011;38160;52.876;18.778;2022-07-23T02:21:02;22.98;;;17.60;;
52184;SDS011;38160;52.876;18.778;2022-07-23T02:23:42;21.50;;;17.42;;
52184;SDS011;38160;52.876;18.778;2022-07-23T02:26:23;24.63;;;17.57;;
52184;SDS011;38160;52.876;18.778;2022-07-23T02:29:00;21.73;;;16.80;;
52184;SDS011;38160;52.876;18.778;2022-07-23T02:42:16;20.27;;;16.62;;
52184;SDS011;38160;52.876;18.778;2022-07-23T02:44:58;19.50;;;16.70;;
52184;SDS011;38160;52.876;18.778;2022-07-23T02:47:41;21.02;;;16.60;;
52184;SDS011;38160;52.876;18.778;2022-07-23T02:50:32;21.42;;;16.85;;
52184;SDS011;38160;52.876;18.778;2022-07-23T02:53:06;23.02;;;17.27;;
52184;SDS011;38160;52.876;18.778;2022-07-23T02:55:38;20.82;;;16.35;;
52184;SDS011;38160;52.876;18.778;2022-07-23T02:58:36;22.65;;;17.00;;
52184;SDS011;38160;52.876;18.778;2022-07-23T03:01:13;21.33;;;16.80;;
52184;SDS011;38160;52.876;18.778;2022-07-23T03:04:00;20.15;;;16.90;;
52184;SDS011;38160;52.876;18.778;2022-07-23T03:53:59;20.10;;;15.55;;
52184;SDS011;38160;52.876;18.778;2022-07-23T03:57:15;21.82;;;15.65;;
52184;SDS011;38160;52.876;18.778;2022-07-23T04:03:26;19.48;;;14.28;;
52184;SDS011;38160;52.876;18.778;2022-07-23T04:06:05;19.37;;;14.28;;
52184;SDS011;38160;52.876;18.778;2022-07-23T04:15:01;16.48;;;13.10;;
52184;SDS011;38160;52.876;18.778;2022-07-23T04:17:33;18.20;;;14.03;;
52184;SDS011;38160;52.876;18.778;2022-07-23T04:20:05;17.87;;;13.50;;
52184;SDS011;38160;52.876;18.778;2022-07-23T04:22:38;16.42;;;13.98;;
52184;SDS011;38160;52.876;18.778;2022-07-23T04:25:10;18.32;;;14.23;;
52184;SDS011;38160;52.876;18.778;2022-07-23T04:27:42;21.33;;;14.43;;
52184;SDS011;38160;52.876;18.778;2022-07-23T04:30:13;17.07;;;14.23;;
52184;SDS011;38160;52.876;18.778;2022-07-23T04:32:45;17.05;;;13.38;;
52184;SDS011;38160;52.876;18.778;2022-07-23T04:35:19;20.48;;;13.72;;
52184;SDS011;38160;52.876;18.778;2022-07-23T04:37:52;16.02;;;14.05;;
52184;SDS011;38160;52.876;18.778;2022-07-23T04:40:26;21.95;;;13.78;;
52184;SDS011;38160;52.876;18.778;2022-07-23T04:42:58;27.02;;;14.45;;
52184;SDS011;38160;52.876;18.778;2022-07-23T04:45:30;20.68;;;14.23;;
52184;SDS011;38160;52.876;18.778;2022-07-23T04:48:02;18.70;;;15.15;;
52184;SDS011;38160;52.876;18.778;2022-07-23T04:50:35;19.32;;;14.35;;
52184;SDS011;38160;52.876;18.778;2022-07-23T04:53:09;18.92;;;14.33;;
52184;SDS011;38160;52.876;18.778;2022-07-23T04:55:40;16.60;;;13.90;;
52184;SDS011;38160;52.876;18.778;2022-07-23T04:58:12;16.20;;;13.70;;
52184;SDS011;38160;52.876;18.778;2022-07-23T05:00:44;17.10;;;13.88;;
52184;SDS011;38160;52.876;18.778;2022-07-23T05:03:16;16.73;;;13.20;;
52184;SDS011;38160;52.876;18.778;2022-07-23T05:13:28;21.48;;;14.80;;
52184;SDS011;38160;52.876;18.778;2022-07-23T05:16:00;18.85;;;14.30;;
52184;SDS011;38160;52.876;18.778;2022-07-23T05:21:41;18.27;;;15.28;;
52184;SDS011;38160;52.876;18.778;2022-07-23T05:24:13;19.40;;;15.93;;
52184;SDS011;38160;52.876;18.778;2022-07-23T05:54:35;24.05;;;15.30;;
52184;SDS011;38160;52.876;18.778;2022-07-23T06:32:50;20.15;;;13.70;;
52184;SDS011;38160;52.876;18.778;2022-07-23T06:35:22;18.62;;;13.03;;
52184;SDS011;38160;52.876;18.778;2022-07-23T06:37:57;20.35;;;13.90;;
52184;SDS011;38160;52.876;18.778;2022-07-23T06:41:05;23.25;;;13.13;;
52184;SDS011;38160;52.876;18.778;2022-07-23T06:51:32;17.27;;;13.08;;
52184;SDS011;38160;52.876;18.778;2022-07-23T06:54:09;16.90;;;12.13;;
52184;SDS011;38160;52.876;18.778;2022-07-23T06:56:40;21.02;;;12.07;;
52184;SDS011;38160;52.876;18.778;2022-07-23T06:59:16;14.50;;;11.60;;
52184;SDS011;38160;52.876;18.778;2022-07-23T07:08:04;21.35;;;10.55;;
52184;SDS011;38160;52.876;18.778;2022-07-23T07:10:43;21.02;;;9.58;;
52184;SDS011;38160;52.876;18.778;2022-07-23T07:16:21;14.73;;;8.63;;
52184;SDS011;38160;52.876;18.778;2022-07-23T07:18:52;15.43;;;8.50;;
52184;SDS011;38160;52.876;18.778;2022-07-23T07:21:24;17.40;;;8.58;;
52184;SDS011;38160;52.876;18.778;2022-07-23T07:23:56;19.90;;;7.85;;
52184;SDS011;38160;52.876;18.778;2022-07-23T07:26:29;20.15;;;7.50;;
52184;SDS011;38160;52.876;18.778;2022-07-23T07:29:06;124.78;;;12.45;;
52184;SDS011;38160;52.876;18.778;2022-07-23T07:31:37;17.70;;;6.17;;
52184;SDS011;38160;52.876;18.778;2022-07-23T07:38:08;11.95;;;5.83;;
52184;SDS011;38160;52.876;18.778;2022-07-23T07:40:39;12.68;;;7.03;;
52184;SDS011;38160;52.876;18.778;2022-07-23T07:43:11;9.08;;;5.53;;
52184;SDS011;38160;52.876;18.778;2022-07-23T07:45:43;8.40;;;5.80;;
52184;SDS011;38160;52.876;18.778;2022-07-23T07:48:15;10.08;;;5.87;;
52184;SDS011;38160;52.876;18.778;2022-07-23T07:50:46;11.95;;;5.97;;
52184;SDS011;38160;52.876;18.778;2022-07-23T07:53:18;16.35;;;6.67;;
52184;SDS011;38160;52.876;18.778;2022-07-23T07:55:50;30.08;;;6.72;;
52184;SDS011;38160;52.876;18.778;2022-07-23T07:58:22;17.42;;;5.45;;
52184;SDS011;38160;52.876;18.778;2022-07-23T08:00:53;12.33;;;5.37;;
52184;SDS011;38160;52.876;18.778;2022-07-23T08:03:25;9.93;;;5.83;;
52184;SDS011;38160;52.876;18.778;2022-07-23T08:05:59;14.35;;;5.20;;
52184;SDS011;38160;52.876;18.778;2022-07-23T08:08:31;8.08;;;5.25;;
52184;SDS011;38160;52.876;18.778;2022-07-23T08:11:03;10.78;;;5.50;;
52184;SDS011;38160;52.876;18.778;2022-07-23T08:13:34;10.40;;;5.55;;
52184;SDS011;38160;52.876;18.778;2022-07-23T08:16:06;8.33;;;4.90;;
52184;SDS011;38160;52.876;18.778;2022-07-23T08:18:38;7.65;;;4.92;;
52184;SDS011;38160;52.876;18.778;2022-07-23T08:21:10;8.15;;;5.28;;
52184;SDS011;38160;52.876;18.778;2022-07-23T08:23:42;18.15;;;5.47;;
52184;SDS011;38160;52.876;18.778;2022-07-23T08:26:14;15.50;;;4.60;;
52184;SDS011;38160;52.876;18.778;2022-07-23T08:28:45;8.18;;;4.85;;
52184;SDS011;38160;52.876;18.778;2022-07-23T08:31:17;12.10;;;4.70;;
52184;SDS011;38160;52.876;18.778;2022-07-23T08:33:49;8.60;;;4.53;;
52184;SDS011;38160;52.876;18.778;2022-07-23T08:36:21;14.23;;;5.35;;
52184;SDS011;38160;52.876;18.778;2022-07-23T08:38:53;12.33;;;4.78;;
52184;SDS011;38160;52.876;18.778;2022-07-23T08:41:25;9.08;;;4.85;;
52184;SDS011;38160;52.876;18.778;2022-07-23T08:43:57;40.17;;;6.12;;
52184;SDS011;38160;52.876;18.778;2022-07-23T08:46:31;28.77;;;5.80;;
52184;SDS011;38160;52.876;18.778;2022-07-23T08:49:03;19.90;;;5.67;;
52184;SDS011;38160;52.876;18.778;2022-07-23T08:51:35;9.38;;;5.12;;
52184;SDS011;38160;52.876;18.778;2022-07-23T08:57:24;15.10;;;6.08;;
52184;SDS011;38160;52.876;18.778;2022-07-23T08:59:56;25.35;;;5.72;;
52184;SDS011;38160;52.876;18.778;2022-07-23T09:06:05;9.20;;;5.12;;
52184;SDS011;38160;52.876;18.778;2022-07-23T09:08:43;10.50;;;6.30;;
52184;SDS011;38160;52.876;18.778;2022-07-23T09:11:20;23.12;;;5.97;;
52184;SDS011;38160;52.876;18.778;2022-07-23T09:13:54;19.30;;;5.75;;
52184;SDS011;38160;52.876;18.778;2022-07-23T09:16:28;9.33;;;5.00;;
52184;SDS011;38160;52.876;18.778;2022-07-23T09:19:03;30.30;;;5.72;;
52184;SDS011;38160;52.876;18.778;2022-07-23T09:21:50;16.37;;;6.00;;
52184;SDS011;38160;52.876;18.778;2022-07-23T09:24:21;15.93;;;5.35;;
52184;SDS011;38160;52.876;18.778;2022-07-23T09:26:53;10.00;;;5.55;;
52184;SDS011;38160;52.876;18.778;2022-07-23T09:29:25;11.12;;;5.40;;
52184;SDS011;38160;52.876;18.778;2022-07-23T09:32:01;10.43;;;6.15;;
52184;SDS011;38160;52.876;18.778;2022-07-23T09:34:36;8.23;;;5.35;;
52184;SDS011;38160;52.876;18.778;2022-07-23T09:37:12;10.25;;;4.90;;
52184;SDS011;38160;52.876;18.778;2022-07-23T09:39:47;16.15;;;5.42;;
52184;SDS011;38160;52.876;18.778;2022-07-23T09:42:23;15.50;;;6.12;;
52184;SDS011;38160;52.876;18.778;2022-07-23T09:45:02;12.05;;;5.17;;
52184;SDS011;38160;52.876;18.778;2022-07-23T09:47:37;18.40;;;5.15;;
52184;SDS011;38160;52.876;18.778;2022-07-23T09:50:11;10.75;;;5.42;;
52184;SDS011;38160;52.876;18.778;2022-07-23T09:53:05;13.00;;;4.70;;
52184;SDS011;38160;52.876;18.778;2022-07-23T09:55:37;11.48;;;5.17;;
52184;SDS011;38160;52.876;18.778;2022-07-23T10:09:05;30.35;;;5.83;;
52184;SDS011;38160;52.876;18.778;2022-07-23T10:11:42;10.10;;;4.70;;
52184;SDS011;38160;52.876;18.778;2022-07-23T10:14:24;7.28;;;4.55;;
52184;SDS011;38160;52.876;18.778;2022-07-23T10:20:12;10.28;;;5.10;;
52184;SDS011;38160;52.876;18.778;2022-07-23T10:22:46;18.17;;;5.80;;
52184;SDS011;38160;52.876;18.778;2022-07-23T10:25:55;11.95;;;4.45;;
52184;SDS011;38160;52.876;18.778;2022-07-23T10:28:42;12.25;;;4.28;;
52184;SDS011;38160;52.876;18.778;2022-07-23T10:34:55;9.95;;;4.20;;
52184;SDS011;38160;52.876;18.778;2022-07-23T10:38:13;17.77;;;4.28;;
52184;SDS011;38160;52.876;18.778;2022-07-23T10:43:34;7.60;;;3.67;;
52184;SDS011;38160;52.876;18.778;2022-07-23T10:46:21;70.80;;;7.05;;
52184;SDS011;38160;52.876;18.778;2022-07-23T10:58:17;6.87;;;4.40;;
52184;SDS011;38160;52.876;18.778;2022-07-23T11:08:13;6.90;;;4.20;;
52184;SDS011;38160;52.876;18.778;2022-07-23T11:10:52;6.65;;;4.08;;
52184;SDS011;38160;52.876;18.778;2022-07-23T11:13:39;23.12;;;4.65;;
52184;SDS011;38160;52.876;18.778;2022-07-23T11:16:18;8.03;;;4.40;;
52184;SDS011;38160;52.876;18.778;2022-07-23T11:18:53;11.43;;;4.42;;
52184;SDS011;38160;52.876;18.778;2022-07-23T11:26:47;12.87;;;4.70;;
52184;SDS011;38160;52.876;18.778;2022-07-23T11:32:08;22.52;;;10.68;;
52184;SDS011;38160;52.876;18.778;2022-07-23T11:34:52;13.58;;;5.70;;
52184;SDS011;38160;52.876;18.778;2022-07-23T11:40:07;8.08;;;4.55;;
52184;SDS011;38160;52.876;18.778;2022-07-23T11:47:03;10.20;;;5.17;;
52184;SDS011;38160;52.876;18.778;2022-07-23T11:49:34;14.63;;;6.47;;
52184;SDS011;38160;52.876;18.778;2022-07-23T11:52:13;11.08;;;6.62;;
52184;SDS011;38160;52.876;18.778;2022-07-23T11:58:08;11.35;;;6.87;;
52184;SDS011;38160;52.876;18.778;2022-07-23T12:03:58;20.08;;;12.00;;
52184;SDS011;38160;52.876;18.778;2022-07-23T12:09:14;14.78;;;8.85;;
52184;SDS011;38160;52.876;18.778;2022-07-23T12:12:01;16.07;;;9.78;;
52184;SDS011;38160;52.876;18.778;2022-07-23T12:22:08;15.70;;;9.93;;
52184;SDS011;38160;52.876;18.778;2022-07-23T12:24:57;19.35;;;11.93;;
52184;SDS011;38160;52.876;18.778;2022-07-23T12:27:31;15.55;;;10.48;;
52184;SDS011;38160;52.876;18.778;2022-07-23T12:30:22;20.37;;;11.88;;
52184;SDS011;38160;52.876;18.778;2022-07-23T12:36:06;18.62;;;12.10;;
52184;SDS011;38160;52.876;18.778;2022-07-23T12:38:43;18.15;;;12.73;;
52184;SDS011;38160;52.876;18.778;2022-07-23T12:41:21;16.75;;;12.03;;
52184;SDS011;38160;52.876;18.778;2022-07-23T12:43:55;17.55;;;12.78;;
52184;SDS011;38160;52.876;18.778;2022-07-23T12:46:49;19.23;;;12.63;;
52184;SDS011;38160;52.876;18.778;2022-07-23T12:49:28;19.00;;;13.15;;
52184;SDS011;38160;52.876;18.778;2022-07-23T12:54:40;15.23;;;12.43;;
52184;SDS011;38160;52.876;18.778;2022-07-23T12:57:12;21.20;;;13.07;;
52184;SDS011;38160;52.876;18.778;2022-07-23T12:59:44;16.15;;;11.73;;
52184;SDS011;38160;52.876;18.778;2022-07-23T13:02:18;16.47;;;11.43;;
52184;SDS011;38160;52.876;18.778;2022-07-23T13:04:50;22.98;;;12.35;;
52184;SDS011;38160;52.876;18.778;2022-07-23T13:07:22;14.93;;;12.20;;
52184;SDS011;38160;52.876;18.778;2022-07-23T13:09:53;15.80;;;12.60;;
52184;SDS011;38160;52.876;18.778;2022-07-23T13:12:25;15.90;;;12.58;;
52184;SDS011;38160;52.876;18.778;2022-07-23T13:14:57;17.37;;;12.10;;
52184;SDS011;38160;52.876;18.778;2022-07-23T13:17:29;19.00;;;12.50;;
52184;SDS011;38160;52.876;18.778;2022-07-23T13:20:01;16.87;;;12.80;;
52184;SDS011;38160;52.876;18.778;2022-07-23T13:22:33;16.50;;;12.35;;
52184;SDS011;38160;52.876;18.778;2022-07-23T13:25:08;17.10;;;13.15;;
52184;SDS011;38160;52.876;18.778;2022-07-23T13:28:08;15.13;;;11.05;;
52184;SDS011;38160;52.876;18.778;2022-07-23T13:30:40;18.55;;;12.75;;
52184;SDS011;38160;52.876;18.778;2022-07-23T13:33:12;18.20;;;13.10;;
52184;SDS011;38160;52.876;18.778;2022-07-23T13:35:45;17.87;;;13.20;;
52184;SDS011;38160;52.876;18.778;2022-07-23T13:38:18;16.45;;;13.08;;
52184;SDS011;38160;52.876;18.778;2022-07-23T13:40:57;16.55;;;13.35;;
52184;SDS011;38160;52.876;18.778;2022-07-23T13:43:29;19.07;;;14.13;;
52184;SDS011;38160;52.876;18.778;2022-07-23T13:46:02;17.98;;;14.07;;
52184;SDS011;38160;52.876;18.778;2022-07-23T13:48:34;17.50;;;13.40;;
52184;SDS011;38160;52.876;18.778;2022-07-23T13:51:07;19.12;;;13.38;;
52184;SDS011;38160;52.876;18.778;2022-07-23T13:56:54;14.98;;;12.75;;
52184;SDS011;38160;52.876;18.778;2022-07-23T13:59:26;16.00;;;13.35;;
52184;SDS011;38160;52.876;18.778;2022-07-23T14:02:18;18.75;;;13.22;;
52184;SDS011;38160;52.876;18.778;2022-07-23T14:04:50;19.23;;;14.33;;
52184;SDS011;38160;52.876;18.778;2022-07-23T14:07:23;14.70;;;13.03;;
52184;SDS011;38160;52.876;18.778;2022-07-23T14:10:13;18.82;;;13.83;;
52184;SDS011;38160;52.876;18.778;2022-07-23T14:12:53;20.50;;;15.20;;
52184;SDS011;38160;52.876;18.778;2022-07-23T14:18:38;17.12;;;13.13;;
52184;SDS011;38160;52.876;18.778;2022-07-23T14:21:10;17.82;;;13.83;;
52184;SDS011;38160;52.876;18.778;2022-07-23T14:23:44;19.15;;;13.30;;
52184;SDS011;38160;52.876;18.778;2022-07-23T14:26:19;18.80;;;14.07;;
52184;SDS011;38160;52.876;18.778;2022-07-23T14:28:51;24.18;;;15.03;;
52184;SDS011;38160;52.876;18.778;2022-07-23T14:31:23;17.75;;;13.50;;
52184;SDS011;38160;52.876;18.778;2022-07-23T14:33:55;18.77;;;13.65;;
52184;SDS011;38160;52.876;18.778;2022-07-23T14:36:26;21.70;;;14.43;;
52184;SDS011;38160;52.876;18.778;2022-07-23T14:38:58;17.23;;;13.68;;
52184;SDS011;38160;52.876;18.778;2022-07-23T14:41:30;19.05;;;14.13;;
52184;SDS011;38160;52.876;18.778;2022-07-23T14:44:02;18.48;;;13.95;;
52184;SDS011;38160;52.876;18.778;2022-07-23T14:46:34;16.52;;;13.68;;
52184;SDS011;38160;52.876;18.778;2022-07-23T14:49:06;19.77;;;13.62;;
52184;SDS011;38160;52.876;18.778;2022-07-23T14:51:38;17.30;;;13.10;;
52184;SDS011;38160;52.876;18.778;2022-07-23T14:54:11;18.37;;;14.90;;
52184;SDS011;38160;52.876;18.778;2022-07-23T14:56:44;18.50;;;13.53;;
52184;SDS011;38160;52.876;18.778;2022-07-23T14:59:16;18.87;;;13.65;;
52184;SDS011;38160;52.876;18.778;2022-07-23T15:01:48;16.20;;;14.00;;
52184;SDS011;38160;52.876;18.778;2022-07-23T15:04:20;19.30;;;13.50;;
52184;SDS011;38160;52.876;18.778;2022-07-23T15:06:52;21.65;;;14.80;;
52184;SDS011;38160;52.876;18.778;2022-07-23T15:09:24;17.20;;;14.30;;
52184;SDS011;38160;52.876;18.778;2022-07-23T15:11:56;17.87;;;14.43;;
52184;SDS011;38160;52.876;18.778;2022-07-23T15:14:28;17.85;;;13.38;;
52184;SDS011;38160;52.876;18.778;2022-07-23T15:17:00;18.73;;;14.80;;
52184;SDS011;38160;52.876;18.778;2022-07-23T15:19:31;20.55;;;15.00;;
52184;SDS011;38160;52.876;18.778;2022-07-23T15:22:03;20.17;;;15.28;;
52184;SDS011;38160;52.876;18.778;2022-07-23T15:24:35;20.10;;;13.75;;
52184;SDS011;38160;52.876;18.778;2022-07-23T15:27:07;18.55;;;14.98;;
52184;SDS011;38160;52.876;18.778;2022-07-23T15:32:46;17.70;;;14.58;;
52184;SDS011;38160;52.876;18.778;2022-07-23T15:35:18;19.85;;;14.00;;
52184;SDS011;38160;52.876;18.778;2022-07-23T15:37:50;18.45;;;14.68;;
52184;SDS011;38160;52.876;18.778;2022-07-23T15:40:24;19.27;;;14.37;;
52184;SDS011;38160;52.876;18.778;2022-07-23T15:42:56;16.30;;;13.10;;
52184;SDS011;38160;52.876;18.778;2022-07-23T15:48:23;18.62;;;14.10;;
52184;SDS011;38160;52.876;18.778;2022-07-23T15:50:57;19.17;;;14.07;;
52184;SDS011;38160;52.876;18.778;2022-07-23T15:59:49;21.20;;;15.95;;
52184;SDS011;38160;52.876;18.778;2022-07-23T16:02:22;16.25;;;13.95;;
52184;SDS011;38160;52.876;18.778;2022-07-23T16:04:54;17.25;;;13.80;;
52184;SDS011;38160;52.876;18.778;2022-07-23T16:07:29;18.55;;;14.60;;
52184;SDS011;38160;52.876;18.778;2022-07-23T16:10:03;18.40;;;14.47;;
52184;SDS011;38160;52.876;18.778;2022-07-23T16:12:43;18.65;;;13.83;;
52184;SDS011;38160;52.876;18.778;2022-07-23T16:17:49;15.28;;;13.22;;
52184;SDS011;38160;52.876;18.778;2022-07-23T16:23:13;19.60;;;14.38;;
52184;SDS011;38160;52.876;18.778;2022-07-23T16:25:45;19.07;;;14.93;;
52184;SDS011;38160;52.876;18.778;2022-07-23T16:28:18;22.22;;;14.60;;
52184;SDS011;38160;52.876;18.778;2022-07-23T16:30:50;20.23;;;14.87;;
52184;SDS011;38160;52.876;18.778;2022-07-23T16:33:22;20.97;;;14.60;;
52184;SDS011;38160;52.876;18.778;2022-07-23T16:35:54;20.00;;;13.43;;
52184;SDS011;38160;52.876;18.778;2022-07-23T16:38:25;18.92;;;14.15;;
52184;SDS011;38160;52.876;18.778;2022-07-23T16:45:13;20.75;;;14.20;;
52184;SDS011;38160;52.876;18.778;2022-07-23T16:47:45;18.07;;;13.70;;
52184;SDS011;38160;52.876;18.778;2022-07-23T16:50:17;22.20;;;15.20;;
52184;SDS011;38160;52.876;18.778;2022-07-23T16:52:49;20.00;;;14.47;;
52184;SDS011;38160;52.876;18.778;2022-07-23T16:55:21;25.12;;;15.63;;
52184;SDS011;38160;52.876;18.778;2022-07-23T16:57:53;17.40;;;15.32;;
52184;SDS011;38160;52.876;18.778;2022-07-23T17:00:25;17.55;;;14.58;;
52184;SDS011;38160;52.876;18.778;2022-07-23T17:02:57;18.73;;;14.33;;
52184;SDS011;38160;52.876;18.778;2022-07-23T17:05:29;19.00;;;15.03;;
52184;SDS011;38160;52.876;18.778;2022-07-23T17:08:05;18.37;;;15.00;;
52184;SDS011;38160;52.876;18.778;2022-07-23T17:10:34;22.25;;;17.73;;
52184;SDS011;38160;52.876;18.778;2022-07-23T17:13:06;19.15;;;14.90;;
52184;SDS011;38160;52.876;18.778;2022-07-23T17:15:38;19.25;;;14.98;;
52184;SDS011;38160;52.876;18.778;2022-07-23T17:18:10;17.65;;;14.93;;
52184;SDS011;38160;52.876;18.778;2022-07-23T17:20:43;18.05;;;14.78;;
52184;SDS011;38160;52.876;18.778;2022-07-23T17:23:15;16.87;;;14.25;;
52184;SDS011;38160;52.876;18.778;2022-07-23T17:25:47;16.90;;;14.18;;
52184;SDS011;38160;52.876;18.778;2022-07-23T17:28:19;20.50;;;15.38;;
52184;SDS011;38160;52.876;18.778;2022-07-23T17:30:50;18.32;;;14.35;;
52184;SDS011;38160;52.876;18.778;2022-07-23T17:33:22;17.30;;;15.23;;
52184;SDS011;38160;52.876;18.778;2022-07-23T17:35:54;23.05;;;14.98;;
52184;SDS011;38160;52.876;18.778;2022-07-23T17:38:26;19.45;;;16.05;;
52184;SDS011;38160;52.876;18.778;2022-07-23T17:41:16;17.85;;;15.65;;
52184;SDS011;38160;52.876;18.778;2022-07-23T17:44:16;19.43;;;16.40;;
52184;SDS011;38160;52.876;18.778;2022-07-23T17:46:49;21.25;;;16.60;;
52184;SDS011;38160;52.876;18.778;2022-07-23T17:49:22;23.53;;;16.77;;
52184;SDS011;38160;52.876;18.778;2022-07-23T17:51:55;22.60;;;17.42;;
52184;SDS011;38160;52.876;18.778;2022-07-23T17:54:28;23.77;;;16.90;;
52184;SDS011;38160;52.876;18.778;2022-07-23T17:56:59;21.27;;;17.27;;
52184;SDS011;38160;52.876;18.778;2022-07-23T18:06:14;22.95;;;17.15;;
52184;SDS011;38160;52.876;18.778;2022-07-23T18:08:46;20.75;;;16.23;;
52184;SDS011;38160;52.876;18.778;2022-07-23T18:14:30;21.33;;;17.32;;
52184;SDS011;38160;52.876;18.778;2022-07-23T19:02:48;27.10;;;20.10;;
52184;SDS011;38160;52.876;18.778;2022-07-23T19:09:36;23.22;;;19.75;;
52184;SDS011;38160;52.876;18.778;2022-07-23T19:15:43;24.35;;;18.60;;
52184;SDS011;38160;52.876;18.778;2022-07-23T19:21:41;28.10;;;20.45;;
52184;SDS011;38160;52.876;18.778;2022-07-23T19:24:13;29.77;;;20.85;;
52184;SDS011;38160;52.876;18.778;2022-07-23T19:26:44;26.02;;;20.48;;
52184;SDS011;38160;52.876;18.778;2022-07-23T19:32:51;31.25;;;21.15;;
52184;SDS011;38160;52.876;18.778;2022-07-23T19:35:29;27.42;;;21.33;;
52184;SDS011;38160;52.876;18.778;2022-07-23T19:38:02;25.80;;;19.70;;
52184;SDS011;38160;52.876;18.778;2022-07-23T19:40:35;24.92;;;20.62;;
52184;SDS011;38160;52.876;18.778;2022-07-23T19:43:07;29.37;;;21.42;;
52184;SDS011;38160;52.876;18.778;2022-07-23T19:45:39;31.77;;;21.70;;
52184;SDS011;38160;52.876;18.778;2022-07-23T19:48:11;27.58;;;20.43;;
52184;SDS011;38160;52.876;18.778;2022-07-23T19:57:39;27.62;;;19.90;;
52184;SDS011;38160;52.876;18.778;2022-07-23T20:00:11;28.73;;;19.32;;
52184;SDS011;38160;52.876;18.778;2022-07-23T20:05:44;29.37;;;19.57;;
52184;SDS011;38160;52.876;18.778;2022-07-23T20:08:20;28.27;;;21.10;;
52184;SDS011;38160;52.876;18.778;2022-07-23T20:10:57;26.73;;;19.87;;
52184;SDS011;38160;52.876;18.778;2022-07-23T20:13:32;29.07;;;19.48;;
52184;SDS011;38160;52.876;18.778;2022-07-23T20:16:04;28.77;;;21.07;;
52184;SDS011;38160;52.876;18.778;2022-07-23T20:18:36;30.82;;;20.48;;
52184;SDS011;38160;52.876;18.778;2022-07-23T20:21:10;31.62;;;20.37;;
52184;SDS011;38160;52.876;18.778;2022-07-23T20:44:57;26.15;;;19.25;;
52184;SDS011;38160;52.876;18.778;2022-07-23T20:47:32;22.65;;;18.62;;
52184;SDS011;38160;52.876;18.778;2022-07-23T20:50:07;27.58;;;18.35;;
52184;SDS011;38160;52.876;18.778;2022-07-23T21:00:34;24.30;;;15.80;;
52184;SDS011;38160;52.876;18.778;2022-07-23T21:03:06;29.48;;;15.13;;
52184;SDS011;38160;52.876;18.778;2022-07-23T21:05:38;20.00;;;15.05;;
52184;SDS011;38160;52.876;18.778;2022-07-23T21:08:10;25.25;;;15.50;;
52184;SDS011;38160;52.876;18.778;2022-07-23T21:10:41;20.60;;;14.43;;
52184;SDS011;38160;52.876;18.778;2022-07-23T21:13:13;19.05;;;14.07;;
52184;SDS011;38160;52.876;18.778;2022-07-23T21:15:45;18.98;;;13.65;;
52184;SDS011;38160;52.876;18.778;2022-07-23T21:18:17;18.27;;;13.35;;
52184;SDS011;38160;52.876;18.778;2022-07-23T21:20:49;23.27;;;13.00;;
52184;SDS011;38160;52.876;18.778;2022-07-23T21:23:40;25.20;;;13.70;;
52184;SDS011;38160;52.876;18.778;2022-07-23T21:26:17;16.97;;;12.23;;
52184;SDS011;38160;52.876;18.778;2022-07-23T21:28:50;18.35;;;11.75;;
52184;SDS011;38160;52.876;18.778;2022-07-23T21:31:21;16.80;;;11.53;;
52184;SDS011;38160;52.876;18.778;2022-07-23T21:33:53;15.53;;;11.45;;
52184;SDS011;38160;52.876;18.778;2022-07-23T21:40:00;17.67;;;11.25;;
52184;SDS011;38160;52.876;18.778;2022-07-23T21:42:31;17.82;;;11.03;;
52184;SDS011;38160;52.876;18.778;2022-07-23T21:45:03;16.10;;;11.30;;
52184;SDS011;38160;52.876;18.778;2022-07-23T21:47:40;16.23;;;11.63;;
52184;SDS011;38160;52.876;18.778;2022-07-23T21:50:12;16.05;;;10.75;;
52184;SDS011;38160;52.876;18.778;2022-07-23T21:52:44;14.38;;;10.00;;
52184;SDS011;38160;52.876;18.778;2022-07-23T21:55:17;18.15;;;10.63;;
52184;SDS011;38160;52.876;18.778;2022-07-23T21:57:48;15.25;;;9.63;;
52184;SDS011;38160;52.876;18.778;2022-07-23T22:00:21;17.57;;;9.05;;
52184;SDS011;38160;52.876;18.778;2022-07-23T22:02:59;13.48;;;9.03;;